Terminal Aerodrome Forecast
Issued by NWS

Home | Current Version | Previous Version | Text Only | Print | Product List | Glossary On
Versions: 1 2 3 4 5 6 7 8 9 10 11 12 13 14 15 16 17 18 19
501
FTUS43 KDLH 110547
TAFHIB
TAF
KHIB 110547Z 1106/1206 00000KT P6SM SKC
     FM111500 29005KT P6SM SCT070 BKN150
     FM112200 29006KT P6SM VCSH BKN030 OVC050
     FM120200 30009KT P6SM BKN040 OVC080=

USA.gov is the U.S. government's official web portal to all federal, state and local government web resources and services.